createdAt,value
2022-11-17T00:00:11.646Z,1.200
2022-11-17T00:01:11.372Z,1
2022-11-17T00:02:11.647Z,1.100
2022-11-17T00:03:10.814Z,0.899
2022-11-17T00:04:11.256Z,1
2022-11-17T00:05:11.595Z,1.200
2022-11-17T00:06:11.897Z,1.100
2022-11-17T00:08:11.583Z,0.899
2022-11-17T00:09:11.593Z,1.100
2022-11-17T00:10:11.607Z,1
2022-11-17T00:11:11.505Z,1.100
2022-11-17T00:12:12.060Z,1
2022-11-17T00:13:11.684Z,0.899
2022-11-17T00:14:10.809Z,1.100
2022-11-17T00:15:11.015Z,1.200
2022-11-17T00:16:11.290Z,1.100
2022-11-17T00:18:11.055Z,1.299
2022-11-17T00:19:11.697Z,1
2022-11-17T00:20:10.893Z,1.100
2022-11-17T00:21:11.088Z,1
2022-11-17T00:22:11.330Z,0.899
2022-11-17T00:23:11.485Z,1
2022-11-17T00:25:11.409Z,0.899
2022-11-17T00:26:11.483Z,1
2022-11-17T00:27:11.261Z,0.899
2022-11-17T00:28:11.766Z,1.100
2022-11-17T00:29:10.670Z,0.899
2022-11-17T00:31:11.659Z,1
2022-11-17T00:33:11.321Z,0.800
2022-11-17T00:34:11.005Z,1.100
2022-11-17T00:35:11.173Z,0.899
2022-11-17T00:37:10.957Z,0.600
2022-11-17T00:38:10.895Z,0.899
2022-11-17T00:39:10.720Z,0.800
2022-11-17T00:40:10.776Z,0.899
2022-11-17T00:42:11.318Z,1.100
2022-11-17T00:43:11.366Z,0.899
2022-11-17T00:44:11.016Z,1.100
2022-11-17T00:45:11.098Z,0.899
2022-11-17T00:46:10.983Z,0.800
2022-11-17T00:47:11.112Z,0.899
2022-11-17T00:49:11.096Z,0.600
2022-11-17T00:50:11.019Z,1.100
2022-11-17T00:51:10.864Z,0.600
2022-11-17T00:52:10.773Z,1.200
2022-11-17T00:53:10.673Z,0.699
2022-11-17T00:54:10.641Z,0.800
2022-11-17T00:56:11.515Z,0.600
2022-11-17T00:57:11.781Z,0.899
2022-11-17T00:58:10.916Z,0.800
2022-11-17T01:01:12.048Z,0.699
2022-11-17T01:03:10.947Z,0.5
2022-11-17T01:04:11.547Z,0.800
2022-11-17T01:05:11.714Z,0.600
2022-11-17T01:07:10.528Z,0.5
2022-11-17T01:08:10.807Z,0.600
2022-11-17T01:09:10.891Z,0.800
2022-11-17T01:10:10.903Z,0.699
2022-11-17T01:11:11.076Z,0.600
2022-11-17T01:13:11.935Z,0.400
2022-11-17T01:14:10.976Z,0.600
2022-11-17T01:15:10.550Z,0.699
2022-11-17T01:17:11.090Z,0.400
2022-11-17T01:18:10.903Z,0.5
2022-11-17T01:20:11.001Z,0.400
2022-11-17T01:21:11.025Z,0.699
2022-11-17T01:22:11.000Z,0.5
2022-11-17T01:24:11.069Z,0.600
2022-11-17T01:25:10.919Z,0.400
2022-11-17T01:26:10.908Z,0.5
2022-11-17T01:28:10.693Z,0.600
2022-11-17T01:30:11.821Z,0.5
2022-11-17T01:31:10.830Z,0.600
2022-11-17T01:32:10.874Z,0.400
2022-11-17T01:36:10.695Z,0.300
2022-11-17T01:37:11.339Z,0.400
2022-11-17T01:40:11.324Z,0.300
2022-11-17T01:41:10.818Z,0.5
2022-11-17T01:43:10.824Z,0.400
2022-11-17T01:44:11.703Z,0.5
2022-11-17T01:46:11.311Z,0.300
2022-11-17T01:48:10.519Z,0.400
2022-11-17T01:49:11.481Z,0.300
2022-11-17T01:50:11.531Z,0.400
2022-11-17T01:51:11.300Z,0.600
2022-11-17T01:52:11.096Z,0.5
2022-11-17T01:53:11.284Z,0.300
2022-11-17T01:54:11.153Z,0.400
2022-11-17T01:55:10.982Z,0.5
2022-11-17T01:56:10.621Z,0.400
2022-11-17T01:57:11.466Z,0.300
2022-11-17T01:58:11.047Z,0.400
2022-11-17T02:01:11.345Z,0.300
2022-11-17T02:02:11.588Z,0.400
2022-11-17T02:03:11.656Z,0.300
2022-11-17T02:04:11.440Z,0.400
2022-11-17T02:06:11.358Z,0.300
2022-11-17T02:08:11.147Z,0.200
2022-11-17T02:09:10.776Z,0.400
2022-11-17T02:10:10.658Z,0.300
2022-11-17T02:16:10.689Z,0.200
2022-11-17T02:17:14.285Z,0.300
2022-11-17T02:18:11.119Z,0.200
2022-11-17T02:19:10.888Z,0.100
2022-11-17T02:20:11.122Z,0.300
2022-11-17T02:21:11.040Z,0.400
2022-11-17T02:22:11.072Z,0.300
2022-11-17T02:24:10.935Z,0.200
2022-11-17T02:26:10.662Z,0.300
2022-11-17T02:27:11.411Z,0.200
2022-11-17T02:28:11.038Z,0.300
2022-11-17T02:29:11.150Z,0.200
2022-11-17T02:30:11.681Z,0.300
2022-11-17T02:31:10.981Z,0.200
2022-11-17T02:32:10.690Z,0.400
2022-11-17T02:33:11.402Z,0.300
2022-11-17T02:34:11.103Z,0.200
2022-11-17T02:35:11.131Z,0.300
2022-11-17T02:36:11.325Z,0.200
2022-11-17T02:37:10.883Z,0.400
2022-11-17T02:38:10.834Z,0.300
2022-11-17T02:39:10.893Z,0.200
2022-11-17T02:40:11.147Z,0.300
2022-11-17T02:41:11.105Z,0.400
2022-11-17T02:43:11.081Z,0.5
2022-11-17T02:44:11.326Z,0.400
2022-11-17T02:45:11.558Z,0.300
2022-11-17T02:46:11.599Z,0.400
2022-11-17T02:47:11.532Z,0.100
2022-11-17T02:48:11.019Z,0.300
2022-11-17T02:54:11.137Z,0.200
2022-11-17T02:56:11.422Z,0.100
2022-11-17T02:57:11.623Z,0.300
2022-11-17T02:58:11.214Z,0.200
2022-11-17T02:59:11.196Z,0.400
2022-11-17T03:00:11.606Z,0.200
2022-11-17T03:01:10.930Z,0.400
2022-11-17T03:02:10.975Z,0.300
2022-11-17T03:03:10.802Z,0.200
2022-11-17T03:06:10.659Z,0.300
2022-11-17T03:07:10.821Z,0.200
2022-11-17T03:08:10.535Z,0.400
2022-11-17T03:12:10.622Z,0.300
2022-11-17T03:13:11.180Z,0.400
2022-11-17T03:14:11.129Z,0.5
2022-11-17T03:21:10.918Z,0.800
2022-11-17T03:22:10.805Z,0.5
2022-11-17T03:23:11.112Z,0.600
2022-11-17T03:25:10.845Z,0.699
2022-11-17T03:26:10.752Z,0.600
2022-11-17T03:29:11.566Z,1
2022-11-17T03:30:11.557Z,0.800
2022-11-17T03:31:11.701Z,0.899
2022-11-17T03:32:11.275Z,0.699
2022-11-17T03:33:11.121Z,1.100
2022-11-17T03:34:10.852Z,0.699
2022-11-17T03:35:10.568Z,0.800
2022-11-17T03:39:10.947Z,1.200
2022-11-17T03:40:10.990Z,0.899
2022-11-17T03:41:11.103Z,1.200
2022-11-17T03:42:10.980Z,1
2022-11-17T03:43:10.719Z,1.200
2022-11-17T03:44:11.311Z,0.800
2022-11-17T03:45:11.177Z,1
2022-11-17T03:46:10.688Z,1.100
2022-11-17T03:48:11.292Z,1.299
2022-11-17T03:49:10.744Z,1.100
2022-11-17T03:50:11.743Z,1.299
2022-11-17T03:52:11.053Z,1.100
2022-11-17T03:54:11.079Z,1.200
2022-11-17T03:55:10.728Z,1.299
2022-11-17T03:56:11.354Z,1.100
2022-11-17T03:58:10.929Z,1.299
2022-11-17T04:00:11.028Z,1.100
2022-11-17T04:02:11.084Z,1.200
2022-11-17T04:03:10.914Z,1.100
2022-11-17T04:04:10.919Z,1.200
2022-11-17T04:05:11.078Z,1.299
2022-11-17T04:07:10.556Z,1
2022-11-17T04:09:11.129Z,1.299
2022-11-17T04:11:10.759Z,1.600
2022-11-17T04:12:10.493Z,1.299
2022-11-17T04:13:10.914Z,1.5
2022-11-17T04:14:10.602Z,1.299
2022-11-17T04:15:10.736Z,1.200
2022-11-17T04:16:10.770Z,1.399
2022-11-17T04:17:10.795Z,1.5
2022-11-17T04:18:11.707Z,1.200
2022-11-17T04:19:11.245Z,1.5
2022-11-17T04:21:10.743Z,1.399
2022-11-17T04:22:11.645Z,1.200
2022-11-17T04:23:11.463Z,1.399
2022-11-17T04:24:11.062Z,1.5
2022-11-17T04:25:11.094Z,1.200
2022-11-17T04:26:10.532Z,1.399
2022-11-17T04:27:11.540Z,1.299
2022-11-17T04:28:11.256Z,1.5
2022-11-17T04:29:10.982Z,1.299
2022-11-17T04:30:10.936Z,1.600
2022-11-17T04:31:10.780Z,1.200
2022-11-17T04:32:10.711Z,1.299
2022-11-17T04:35:10.849Z,1.399
2022-11-17T04:36:10.644Z,1.299
2022-11-17T04:37:11.515Z,1.200
2022-11-17T04:39:10.928Z,1.299
2022-11-17T04:41:11.400Z,1.100
2022-11-17T04:42:11.081Z,1.200
2022-11-17T04:43:10.673Z,1.299
2022-11-17T04:44:11.264Z,1.399
2022-11-17T04:46:10.811Z,1.200
2022-11-17T04:47:10.956Z,1.100
2022-11-17T04:49:10.822Z,1
2022-11-17T04:50:10.712Z,1.5
2022-11-17T04:51:11.325Z,1
2022-11-17T04:52:11.010Z,1.5
2022-11-17T04:53:10.946Z,1.399
2022-11-17T04:55:11.047Z,1.200
2022-11-17T05:02:11.205Z,1.299
2022-11-17T05:03:11.367Z,1.399
2022-11-17T05:05:11.050Z,1.200
2022-11-17T05:06:10.672Z,1.299
2022-11-17T05:07:11.407Z,1.100
2022-11-17T05:08:10.970Z,1.200
2022-11-17T05:09:11.109Z,1.100
2022-11-17T05:10:10.801Z,1.200
2022-11-17T05:14:10.573Z,1.399
2022-11-17T05:16:10.953Z,1.299
2022-11-17T05:17:11.543Z,1.399
2022-11-17T05:18:11.449Z,1.200
2022-11-17T05:19:11.322Z,1.299
2022-11-17T05:21:11.060Z,1.200
2022-11-17T05:22:10.633Z,1.299
2022-11-17T05:23:11.362Z,1.600
2022-11-17T05:24:11.257Z,1.399
2022-11-17T05:25:11.464Z,1.299
2022-11-17T05:26:11.331Z,1.100
2022-11-17T05:27:10.894Z,1.299
2022-11-17T05:28:10.724Z,1.200
2022-11-17T05:29:10.935Z,1.299
2022-11-17T05:30:10.883Z,1.399
2022-11-17T05:31:10.898Z,1.299
2022-11-17T05:32:10.819Z,1.5
2022-11-17T05:33:10.758Z,1.399
2022-11-17T05:34:10.574Z,1.5
2022-11-17T05:35:11.657Z,1.399
2022-11-17T05:36:11.489Z,1.299
2022-11-17T05:39:11.083Z,1.399
2022-11-17T05:40:10.991Z,1.299
2022-11-17T05:41:10.729Z,1.799
2022-11-17T05:42:11.726Z,1.399
2022-11-17T05:44:10.667Z,1.600
2022-11-17T05:45:10.792Z,1.5
2022-11-17T05:49:10.717Z,1.600
2022-11-17T05:51:11.495Z,1.399
2022-11-17T05:52:11.420Z,1.600
2022-11-17T05:53:11.179Z,1.5
2022-11-17T05:54:10.923Z,1.700
2022-11-17T05:55:10.879Z,1.5
2022-11-17T05:56:10.757Z,1.600
2022-11-17T05:57:11.554Z,1.5
2022-11-17T05:58:11.404Z,1.600
2022-11-17T06:00:12.093Z,1.5
2022-11-17T06:01:11.429Z,1.600
2022-11-17T06:02:11.437Z,1.799
2022-11-17T06:03:11.130Z,1.299
2022-11-17T06:04:10.838Z,1.700
2022-11-17T06:05:15.661Z,1.899
2022-11-17T06:06:15.737Z,1.5
2022-11-17T06:08:11.016Z,1.700
2022-11-17T06:09:10.923Z,1.5
2022-11-17T06:10:11.078Z,1.600
2022-11-17T06:12:10.785Z,1.799
2022-11-17T06:14:10.551Z,1.600
2022-11-17T06:17:11.024Z,1.100
2022-11-17T06:18:11.037Z,1
2022-11-17T06:19:11.145Z,1.100
2022-11-17T06:21:10.761Z,0.699
2022-11-17T06:22:12.661Z,1
2022-11-17T06:23:10.769Z,1.100
2022-11-17T06:24:10.692Z,1.299
2022-11-17T06:25:10.840Z,1.100
2022-11-17T06:26:10.915Z,1
2022-11-17T06:27:10.986Z,0.800
2022-11-17T06:28:11.346Z,1
2022-11-17T06:29:11.077Z,0.800
2022-11-17T06:30:12.191Z,0.899
2022-11-17T06:31:11.580Z,0.800
2022-11-17T06:32:11.188Z,0.699
2022-11-17T06:33:12.523Z,0.600
2022-11-17T06:34:11.045Z,0.5
2022-11-17T06:35:11.064Z,0.400
2022-11-17T06:37:11.806Z,0.600
2022-11-17T06:38:10.948Z,0.5
2022-11-17T06:39:11.332Z,0.400
2022-11-17T06:40:11.290Z,0.600
2022-11-17T06:42:11.313Z,0.300
2022-11-17T06:43:10.928Z,0.400
2022-11-17T06:46:10.934Z,0.5
2022-11-17T06:47:11.390Z,0.400
2022-11-17T06:48:10.822Z,0.5
2022-11-17T06:49:10.845Z,0.400
2022-11-17T06:51:10.874Z,0.5
2022-11-17T06:52:10.867Z,0.300
2022-11-17T06:54:11.005Z,0.5
2022-11-17T06:57:11.461Z,0.400
2022-11-17T06:58:10.632Z,0.300
2022-11-17T06:59:10.941Z,0.400
2022-11-17T07:00:11.920Z,0.5
2022-11-17T07:01:10.775Z,0.400
2022-11-17T07:02:10.951Z,0.600
2022-11-17T07:03:11.460Z,0.400
2022-11-17T07:05:10.581Z,0.5
2022-11-17T07:07:10.867Z,0.400
2022-11-17T07:09:11.214Z,0.5
2022-11-17T07:12:11.229Z,0.400
2022-11-17T07:13:11.492Z,0.5
2022-11-17T07:14:11.267Z,0.400
2022-11-17T07:15:11.760Z,0.600
2022-11-17T07:16:10.930Z,0.699
2022-11-17T07:17:11.651Z,0.600
2022-11-17T07:18:11.543Z,0.400
2022-11-17T07:20:10.940Z,0.5
2022-11-17T07:22:11.664Z,0.600
2022-11-17T07:24:11.333Z,0.699
2022-11-17T07:25:11.583Z,0.5
2022-11-17T07:26:10.976Z,0.600
2022-11-17T07:27:11.161Z,0.5
2022-11-17T07:28:10.935Z,0.600
2022-11-17T07:29:11.436Z,0.400
2022-11-17T07:30:11.008Z,0.600
2022-11-17T07:31:11.238Z,0.400
2022-11-17T07:32:11.731Z,0.600
2022-11-17T07:35:11.035Z,0.899
2022-11-17T07:36:11.030Z,0.699
2022-11-17T07:37:11.341Z,0.5
2022-11-17T07:38:11.583Z,0.699
2022-11-17T07:39:10.478Z,0.5
2022-11-17T07:40:11.710Z,0.600
2022-11-17T07:42:10.778Z,0.699
2022-11-17T07:44:11.386Z,0.400
2022-11-17T07:46:11.236Z,0.699
2022-11-17T07:47:11.498Z,0.600
2022-11-17T07:49:10.783Z,0.699
2022-11-17T07:50:12.667Z,0.5
2022-11-17T07:51:11.533Z,0.600
2022-11-17T07:54:11.344Z,0.400
2022-11-17T07:55:11.062Z,0.600
2022-11-17T08:03:11.486Z,0.800
2022-11-17T08:04:10.730Z,0.699
2022-11-17T08:05:11.191Z,0.600
2022-11-17T08:06:11.543Z,0.5
2022-11-17T08:07:11.676Z,0.600
2022-11-17T08:09:11.289Z,0.699
2022-11-17T08:10:11.676Z,0.800
2022-11-17T08:11:10.892Z,0.699
2022-11-17T08:13:11.307Z,0.600
2022-11-17T08:14:11.678Z,0.699
2022-11-17T08:15:11.149Z,0.5
2022-11-17T08:16:11.267Z,0.899
2022-11-17T08:17:11.541Z,0.5
2022-11-17T08:18:11.723Z,0.600
2022-11-17T08:19:10.653Z,0.899
2022-11-17T08:21:11.181Z,0.600
2022-11-17T08:22:11.172Z,0.5
2022-11-17T08:23:11.465Z,0.800
2022-11-17T08:26:11.300Z,0.699
2022-11-17T08:27:11.297Z,0.400
2022-11-17T08:28:11.514Z,0.699
2022-11-17T08:30:11.624Z,0.5
2022-11-17T08:31:10.862Z,0.699
2022-11-17T08:33:16.525Z,0.600
2022-11-17T08:34:11.411Z,0.699
2022-11-17T08:35:11.628Z,0.5
2022-11-17T08:36:10.533Z,0.699
2022-11-17T08:37:16.253Z,0.800
2022-11-17T08:38:11.248Z,0.600
2022-11-17T08:40:11.582Z,0.699
2022-11-17T08:41:10.970Z,0.800
2022-11-17T08:42:11.012Z,0.899
2022-11-17T08:43:11.889Z,0.800
2022-11-17T08:44:11.307Z,1
2022-11-17T08:45:11.541Z,0.600
2022-11-17T08:46:11.660Z,0.800
2022-11-17T08:48:11.112Z,0.699
2022-11-17T08:49:11.152Z,0.800
2022-11-17T08:50:11.397Z,0.699
2022-11-17T08:53:25.004Z,0.800
2022-11-17T08:54:11.515Z,0.699
2022-11-17T08:57:11.798Z,0.5
2022-11-17T08:58:11.074Z,0.600
2022-11-17T08:59:11.032Z,0.699
2022-11-17T09:02:11.484Z,0.600
2022-11-17T09:03:11.462Z,0.800
2022-11-17T09:06:11.260Z,1
2022-11-17T09:07:11.417Z,0.800
2022-11-17T09:08:43.147Z,0.699
2022-11-17T09:09:11.627Z,0.899
2022-11-17T09:10:11.123Z,1
2022-11-17T09:11:11.319Z,0.699
2022-11-17T09:12:11.333Z,0.400
2022-11-17T09:13:14.768Z,1
2022-11-17T09:14:11.448Z,0.699
2022-11-17T09:15:11.370Z,0.800
2022-11-17T09:16:11.323Z,0.899
2022-11-17T09:17:11.066Z,0.800
2022-11-17T09:18:11.150Z,0.899
2022-11-17T09:19:11.325Z,0.800
2022-11-17T09:22:11.971Z,0.699
2022-11-17T09:23:11.039Z,0.899
2022-11-17T09:24:11.216Z,0.600
2022-11-17T09:25:13.480Z,0.699
2022-11-17T09:26:11.775Z,1
2022-11-17T09:27:11.249Z,0.800
2022-11-17T09:28:11.392Z,0.600
2022-11-17T09:29:11.276Z,0.699
2022-11-17T09:32:11.475Z,0.800
2022-11-17T09:34:11.386Z,0.699
2022-11-17T09:35:11.034Z,0.899
2022-11-17T09:38:11.423Z,0.600
2022-11-17T09:39:11.742Z,0.699
2022-11-17T09:41:11.410Z,1
2022-11-17T09:42:11.505Z,0.800
2022-11-17T09:43:10.905Z,0.899
2022-11-17T09:44:11.043Z,0.800
2022-11-17T09:46:11.414Z,0.899
2022-11-17T09:47:11.473Z,1
2022-11-17T09:48:25.870Z,1.100
2022-11-17T09:49:11.544Z,1.200
2022-11-17T09:50:11.772Z,1.100
2022-11-17T09:51:10.775Z,0.800
2022-11-17T09:55:11.471Z,0.600
2022-11-17T09:56:10.660Z,0.800
2022-11-17T09:57:11.617Z,0.899
2022-11-17T09:59:11.494Z,0.800
2022-11-17T10:00:12.279Z,1
2022-11-17T10:01:10.907Z,0.800
2022-11-17T10:02:11.263Z,0.699
2022-11-17T10:03:11.729Z,0.800
2022-11-17T10:04:11.252Z,0.699
2022-11-17T10:06:11.508Z,0.800
2022-11-17T10:08:11.048Z,0.600
2022-11-17T10:09:11.139Z,0.699
2022-11-17T10:13:10.669Z,0.800
2022-11-17T10:14:10.897Z,0.699
2022-11-17T10:15:11.276Z,0.600
2022-11-17T10:16:11.364Z,0.699
2022-11-17T10:17:11.250Z,0.800
2022-11-17T10:18:11.457Z,0.899
2022-11-17T10:19:11.571Z,0.5
2022-11-17T10:20:11.924Z,1
2022-11-17T10:21:11.405Z,0.600
2022-11-17T10:23:11.840Z,0.699
2022-11-17T10:26:10.842Z,0.600
2022-11-17T10:27:11.297Z,0.800
2022-11-17T10:29:11.475Z,0.600
2022-11-17T10:30:11.523Z,0.699
2022-11-17T10:31:11.194Z,0.800
2022-11-17T10:32:12.027Z,0.5
2022-11-17T10:33:11.903Z,0.899
2022-11-17T10:34:11.355Z,0.600
2022-11-17T10:35:11.727Z,0.699
2022-11-17T10:36:11.091Z,0.600
2022-11-17T10:38:10.979Z,0.699
2022-11-17T10:39:17.508Z,0.600
2022-11-17T10:40:11.107Z,0.699
2022-11-17T10:42:10.997Z,0.800
2022-11-17T10:43:11.018Z,0.699
2022-11-17T10:45:11.505Z,0.800
2022-11-17T10:47:10.947Z,0.899
2022-11-17T10:48:11.081Z,0.800
2022-11-17T10:50:11.238Z,1.100
2022-11-17T10:52:11.379Z,0.800
2022-11-17T10:53:12.875Z,0.899
2022-11-17T10:54:11.096Z,0.699
2022-11-17T10:55:11.170Z,0.800
2022-11-17T10:56:11.482Z,0.699
2022-11-17T10:57:10.887Z,0.600
2022-11-17T10:58:11.633Z,0.899
2022-11-17T10:59:10.949Z,0.699
2022-11-17T11:00:11.613Z,0.800
2022-11-17T11:01:11.129Z,0.699
2022-11-17T11:02:11.372Z,0.600
2022-11-17T11:03:11.037Z,1.100
2022-11-17T11:04:11.025Z,0.5
2022-11-17T11:05:11.581Z,0.699
2022-11-17T11:06:17.213Z,0.600
2022-11-17T11:08:11.091Z,0.699
2022-11-17T11:12:11.068Z,0.5
2022-11-17T11:13:11.302Z,0.800
2022-11-17T11:14:11.777Z,0.5
2022-11-17T11:15:10.913Z,0.600
2022-11-17T11:16:25.330Z,0.5
2022-11-17T11:17:11.249Z,0.699
2022-11-17T11:18:11.635Z,0.5
2022-11-17T11:19:10.985Z,0.699
2022-11-17T11:22:11.237Z,0.899
2022-11-17T11:23:11.317Z,0.800
2022-11-17T11:26:10.830Z,0.899
2022-11-17T11:27:10.933Z,1
2022-11-17T11:28:11.385Z,0.800
2022-11-17T11:30:11.563Z,0.699
2022-11-17T11:31:11.141Z,0.800
2022-11-17T11:32:11.537Z,0.699
2022-11-17T11:33:10.900Z,0.600
2022-11-17T11:34:11.580Z,0.699
2022-11-17T11:36:11.075Z,0.600
2022-11-17T11:37:11.065Z,0.899
2022-11-17T11:38:10.924Z,1.100
2022-11-17T11:39:11.486Z,0.800
2022-11-17T11:40:11.080Z,0.699
2022-11-17T11:41:11.514Z,1
2022-11-17T11:42:11.723Z,0.899
2022-11-17T11:43:10.888Z,0.699
2022-11-17T11:44:10.885Z,0.800
2022-11-17T11:45:10.945Z,0.899
2022-11-17T11:46:11.048Z,1
2022-11-17T11:47:10.992Z,0.800
2022-11-17T11:49:11.687Z,0.600
2022-11-17T11:50:11.304Z,0.800
2022-11-17T11:51:11.487Z,0.899
2022-11-17T11:53:11.164Z,0.800
2022-11-17T11:54:11.641Z,1
2022-11-17T11:55:11.159Z,1.100
2022-11-17T11:56:10.489Z,0.899
2022-11-17T11:59:11.259Z,0.800
2022-11-17T12:00:12.093Z,0.899
2022-11-17T12:02:12.099Z,1
2022-11-17T12:03:11.647Z,0.899
2022-11-17T12:04:11.215Z,0.800
2022-11-17T12:05:10.535Z,0.899
2022-11-17T12:07:11.652Z,0.800
2022-11-17T12:08:11.195Z,0.899
2022-11-17T12:11:10.965Z,0.800
2022-11-17T12:12:11.147Z,1.100
2022-11-17T12:13:11.561Z,0.800
2022-11-17T12:16:11.344Z,0.899
2022-11-17T12:19:11.541Z,1
2022-11-17T12:20:11.296Z,0.699
2022-11-17T12:21:10.823Z,1
2022-11-17T12:22:11.256Z,1.299
2022-11-17T12:23:11.146Z,0.800
2022-11-17T12:25:11.401Z,1
2022-11-17T12:26:10.681Z,0.699
2022-11-17T12:27:11.249Z,0.800
2022-11-17T12:32:11.515Z,1
2022-11-17T12:34:11.542Z,0.899
2022-11-17T12:36:11.598Z,1
2022-11-17T12:37:10.819Z,0.800
2022-11-17T12:38:11.025Z,1
2022-11-17T12:39:11.231Z,0.899
2022-11-17T12:40:11.782Z,1.100
2022-11-17T12:41:11.085Z,1
2022-11-17T12:42:11.667Z,0.899
2022-11-17T12:43:11.099Z,1
2022-11-17T12:45:10.911Z,0.600
2022-11-17T12:46:11.371Z,1
2022-11-17T12:47:11.572Z,1.100
2022-11-17T12:48:32.777Z,1
2022-11-17T12:49:11.127Z,0.899
2022-11-17T12:50:11.633Z,1
2022-11-17T12:52:11.323Z,0.899
2022-11-17T12:53:11.617Z,0.800
2022-11-17T12:54:11.701Z,1.100
2022-11-17T12:55:10.937Z,0.699
2022-11-17T12:56:11.427Z,0.899
2022-11-17T12:57:11.938Z,1.100
2022-11-17T12:58:11.939Z,0.800
2022-11-17T12:59:11.997Z,1.100
2022-11-17T13:00:11.718Z,0.800
2022-11-17T13:01:11.588Z,0.899
2022-11-17T13:02:11.280Z,1
2022-11-17T13:03:11.881Z,1.200
2022-11-17T13:04:11.836Z,0.699
2022-11-17T13:05:11.427Z,1.200
2022-11-17T13:06:33.867Z,1.100
2022-11-17T13:07:11.217Z,0.800
2022-11-17T13:09:11.103Z,1.100
2022-11-17T13:11:11.313Z,0.899
2022-11-17T13:12:10.934Z,1
2022-11-17T13:14:12.086Z,1.100
2022-11-17T13:15:11.719Z,0.899
2022-11-17T13:16:11.209Z,1.100
2022-11-17T13:18:10.794Z,1
2022-11-17T13:20:11.144Z,1.100
2022-11-17T13:21:11.526Z,0.800
2022-11-17T13:22:11.178Z,0.899
2022-11-17T13:23:11.604Z,1.100
2022-11-17T13:24:12.019Z,1
2022-11-17T13:25:11.611Z,0.899
2022-11-17T13:27:13.875Z,0.800
2022-11-17T13:28:11.129Z,1
2022-11-17T13:29:11.768Z,1.100
2022-11-17T13:30:11.313Z,1
2022-11-17T13:31:11.629Z,0.800
2022-11-17T13:32:10.957Z,1.299
2022-11-17T13:33:11.416Z,1
2022-11-17T13:34:11.279Z,0.800
2022-11-17T13:35:11.107Z,1.100
2022-11-17T13:36:11.570Z,0.899
2022-11-17T13:38:11.710Z,1.100
2022-11-17T13:39:11.156Z,1
2022-11-17T13:40:12.067Z,1.399
2022-11-17T13:41:11.206Z,1.100
2022-11-17T13:42:11.427Z,1.200
2022-11-17T13:44:11.709Z,1
2022-11-17T13:45:25.315Z,1.100
2022-11-17T13:48:11.049Z,1
2022-11-17T13:49:11.527Z,1.200
2022-11-17T13:50:12.031Z,1.100
2022-11-17T13:51:11.491Z,1.200
2022-11-17T13:53:11.319Z,1.100
2022-11-17T13:54:12.250Z,1.200
2022-11-17T13:55:11.749Z,1.399
2022-11-17T13:56:10.957Z,1.299
2022-11-17T13:57:11.193Z,1.200
2022-11-17T13:58:15.401Z,1
2022-11-17T13:59:11.098Z,1.100
2022-11-17T14:01:12.051Z,1.299
2022-11-17T14:02:11.708Z,1.100
2022-11-17T14:03:11.271Z,1.600
2022-11-17T14:04:15.333Z,1.299
2022-11-17T14:06:11.856Z,1.399
2022-11-17T14:07:11.375Z,1.200
2022-11-17T14:08:11.967Z,1.299
2022-11-17T14:09:33.301Z,1.200
2022-11-17T14:11:11.670Z,1.100
2022-11-17T14:14:11.783Z,1.200
2022-11-17T14:17:11.538Z,1.299
2022-11-17T14:18:10.900Z,1.399
2022-11-17T14:19:11.237Z,1
2022-11-17T14:20:11.543Z,1.299
2022-11-17T14:21:11.568Z,1.200
2022-11-17T14:23:11.654Z,1.100
2022-11-17T14:24:11.269Z,1
2022-11-17T14:25:11.570Z,1.399
2022-11-17T14:26:11.182Z,1.200
2022-11-17T14:27:11.458Z,1.100
2022-11-17T14:29:11.196Z,1.5
2022-11-17T14:30:11.788Z,1.100
2022-11-17T14:31:11.075Z,1.200
2022-11-17T14:35:11.314Z,1.399
2022-11-17T14:36:11.169Z,1.100
2022-11-17T14:38:11.182Z,1.200
2022-11-17T14:40:11.447Z,1
2022-11-17T14:41:11.447Z,0.800
2022-11-17T14:42:11.903Z,1.100
2022-11-17T14:45:11.024Z,1.299
2022-11-17T14:46:11.137Z,0.899
2022-11-17T14:47:11.713Z,1.299
2022-11-17T14:48:14.724Z,1.100
2022-11-17T14:49:10.952Z,1.200
2022-11-17T14:53:11.082Z,1.299
2022-11-17T14:54:11.466Z,1.100
2022-11-17T14:55:11.903Z,1.200
2022-11-17T14:56:11.341Z,1.100
2022-11-17T14:57:11.710Z,0.800
2022-11-17T14:58:11.177Z,1.100
2022-11-17T14:59:11.368Z,1
2022-11-17T15:01:11.347Z,0.899
2022-11-17T15:02:11.573Z,1.100
2022-11-17T15:05:11.678Z,1.200
2022-11-17T15:07:11.731Z,0.899
2022-11-17T15:09:11.632Z,1.100
2022-11-17T15:13:11.521Z,0.800
2022-11-17T15:15:11.907Z,1
2022-11-17T15:16:11.208Z,1.100
2022-11-17T15:17:14.345Z,1
2022-11-17T15:18:10.959Z,1.299
2022-11-17T15:19:11.415Z,1.100
2022-11-17T15:20:11.866Z,1
2022-11-17T15:21:11.483Z,1.299
2022-11-17T15:22:10.943Z,1.200
2022-11-17T15:25:11.229Z,1.100
2022-11-17T15:27:11.444Z,0.899
2022-11-17T15:28:15.035Z,1
2022-11-17T15:29:11.071Z,1.100
2022-11-17T15:30:11.144Z,1.200
2022-11-17T15:32:11.181Z,1.100
2022-11-17T15:33:11.450Z,1.299
2022-11-17T15:34:14.433Z,1.399
2022-11-17T15:35:11.335Z,1.100
2022-11-17T15:36:11.703Z,1.200
2022-11-17T15:37:10.992Z,1.299
2022-11-17T15:38:11.599Z,1
2022-11-17T15:39:11.321Z,1.100
2022-11-17T15:40:13.993Z,1.200
2022-11-17T15:41:11.466Z,1
2022-11-17T15:42:11.234Z,1.100
2022-11-17T15:43:11.999Z,1.299
2022-11-17T15:46:16.167Z,1.100
2022-11-17T15:47:11.143Z,1.299
2022-11-17T15:48:16.122Z,1.5
2022-11-17T15:49:10.873Z,1.200
2022-11-17T15:50:11.306Z,1
2022-11-17T15:51:11.911Z,1.200
2022-11-17T15:52:11.649Z,1.399
2022-11-17T15:53:11.650Z,1.100
2022-11-17T15:54:15.069Z,1.299
2022-11-17T15:55:11.180Z,1.200
2022-11-17T15:57:11.295Z,1.399
2022-11-17T15:58:19.702Z,1.299
2022-11-17T15:59:11.578Z,1.200
2022-11-17T16:00:20.547Z,1
2022-11-17T16:01:11.308Z,1.399
2022-11-17T16:02:11.371Z,1.100
2022-11-17T16:03:11.941Z,1.299
2022-11-17T16:04:11.491Z,1.100
2022-11-17T16:05:11.907Z,1.299
2022-11-17T16:06:25.405Z,1.200
2022-11-17T16:07:11.485Z,1.399
2022-11-17T16:08:24.990Z,1.299
2022-11-17T16:09:11.219Z,1.100
2022-11-17T16:10:11.380Z,1.200
2022-11-17T16:11:10.708Z,1.299
2022-11-17T16:13:11.501Z,1.5
2022-11-17T16:14:11.601Z,1.200
2022-11-17T16:15:11.108Z,1.700
2022-11-17T16:16:11.770Z,1
2022-11-17T16:17:11.207Z,1.5
2022-11-17T16:18:11.770Z,1.200
2022-11-17T16:19:10.867Z,1.299
2022-11-17T16:20:11.958Z,1.200
2022-11-17T16:21:11.381Z,1.299
2022-11-17T16:22:10.857Z,1.399
2022-11-17T16:23:10.907Z,1
2022-11-17T16:24:11.310Z,1.100
2022-11-17T16:27:13.636Z,1
2022-11-17T16:28:10.963Z,1.100
2022-11-17T16:29:11.441Z,1.299
2022-11-17T16:30:11.575Z,1.200
2022-11-17T16:34:11.213Z,1.399
2022-11-17T16:35:11.612Z,1.200
2022-11-17T16:36:10.821Z,1.5
2022-11-17T16:37:10.909Z,1.600
2022-11-17T16:39:11.616Z,1.700
2022-11-17T16:40:11.351Z,1.299
2022-11-17T16:42:11.510Z,1.399
2022-11-17T16:43:10.878Z,1.299
2022-11-17T16:45:10.986Z,1.100
2022-11-17T16:47:11.547Z,1.299
2022-11-17T16:48:11.052Z,1.100
2022-11-17T16:49:11.439Z,1.399
2022-11-17T16:50:11.526Z,1.299
2022-11-17T16:51:11.256Z,1.399
2022-11-17T16:53:11.647Z,1.200
2022-11-17T16:54:11.363Z,1.799
2022-11-17T16:55:11.400Z,1.700
2022-11-17T16:56:09.620Z,1.5
2022-11-17T16:58:11.485Z,1.399
2022-11-17T16:59:11.592Z,1.700
2022-11-17T17:00:11.911Z,1.399
2022-11-17T17:01:12.547Z,1.600
2022-11-17T17:02:11.040Z,2.200
2022-11-17T17:03:11.564Z,2.099
2022-11-17T17:04:11.493Z,1.600
2022-11-17T17:05:11.128Z,1.399
2022-11-17T17:06:11.669Z,1.700
2022-11-17T17:07:11.129Z,1.299
2022-11-17T17:08:11.535Z,1.899
2022-11-17T17:10:11.364Z,1.700
2022-11-17T17:14:11.036Z,1.899
2022-11-17T17:15:11.844Z,2.200
2022-11-17T17:16:11.219Z,1.899
2022-11-17T17:19:11.643Z,2
2022-11-17T17:21:11.391Z,2.400
2022-11-17T17:22:11.094Z,2.599
2022-11-17T17:23:11.443Z,2.900
2022-11-17T17:25:12.090Z,2.700
2022-11-17T17:26:11.543Z,2.900
2022-11-17T17:27:11.339Z,2.599
2022-11-17T17:28:11.803Z,2.700
2022-11-17T17:29:10.871Z,2.599
2022-11-17T17:30:11.430Z,2.900
2022-11-17T17:32:11.317Z,2.799
2022-11-17T17:33:11.118Z,2.599
2022-11-17T17:35:11.502Z,2.5
2022-11-17T17:36:11.294Z,2.200
2022-11-17T17:37:11.816Z,2.5
2022-11-17T17:39:11.106Z,2.200
2022-11-17T17:40:11.630Z,2.099
2022-11-17T17:41:11.182Z,2
2022-11-17T17:42:11.617Z,1.899
2022-11-17T17:43:11.300Z,2
2022-11-17T17:44:11.028Z,1.899
2022-11-17T17:45:11.590Z,2.099
2022-11-17T17:46:15.412Z,2.200
2022-11-17T17:47:10.986Z,2.299